sensor_id;sensor_type;location;lat;lon;timestamp;P1;durP1;ratioP1;P2;durP2;ratioP2
42296;SDS011;28985;47.456;19.016;2022-09-03T00:01:24;4.90;;;3.13;;
42296;SDS011;28985;47.456;19.016;2022-09-03T00:03:58;5.25;;;3.03;;
42296;SDS011;28985;47.456;19.016;2022-09-03T00:06:30;8.30;;;3.47;;
42296;SDS011;28985;47.456;19.016;2022-09-03T00:09:22;5.53;;;3.33;;
42296;SDS011;28985;47.456;19.016;2022-09-03T00:11:57;3.45;;;3.15;;
42296;SDS011;28985;47.456;19.016;2022-09-03T00:14:33;4.57;;;2.58;;
42296;SDS011;28985;47.456;19.016;2022-09-03T00:17:22;3.67;;;3.35;;
42296;SDS011;28985;47.456;19.016;2022-09-03T00:19:54;3.65;;;3.22;;
42296;SDS011;28985;47.456;19.016;2022-09-03T00:22:30;5.80;;;3.17;;
42296;SDS011;28985;47.456;19.016;2022-09-03T00:25:09;3.80;;;3.03;;
42296;SDS011;28985;47.456;19.016;2022-09-03T00:27:40;2.85;;;2.55;;
42296;SDS011;28985;47.456;19.016;2022-09-03T00:30:11;4.82;;;2.70;;
42296;SDS011;28985;47.456;19.016;2022-09-03T00:32:47;3.20;;;2.88;;
42296;SDS011;28985;47.456;19.016;2022-09-03T00:35:19;4.85;;;2.67;;
42296;SDS011;28985;47.456;19.016;2022-09-03T00:37:52;3.28;;;2.70;;
42296;SDS011;28985;47.456;19.016;2022-09-03T00:40:44;5.03;;;3.25;;
42296;SDS011;28985;47.456;19.016;2022-09-03T00:46:33;3.72;;;3.00;;
42296;SDS011;28985;47.456;19.016;2022-09-03T01:08:04;4.28;;;2.97;;
42296;SDS011;28985;47.456;19.016;2022-09-03T01:13:28;3.20;;;2.90;;
42296;SDS011;28985;47.456;19.016;2022-09-03T01:16:07;4.72;;;2.80;;
42296;SDS011;28985;47.456;19.016;2022-09-03T01:30:10;3.10;;;2.88;;
42296;SDS011;28985;47.456;19.016;2022-09-03T01:33:04;3.70;;;2.90;;
42296;SDS011;28985;47.456;19.016;2022-09-03T01:38:15;3.40;;;2.50;;
42296;SDS011;28985;47.456;19.016;2022-09-03T01:46:38;3.45;;;2.78;;
42296;SDS011;28985;47.456;19.016;2022-09-03T01:51:36;4.60;;;2.58;;
42296;SDS011;28985;47.456;19.016;2022-09-03T01:59:34;5.72;;;2.92;;
42296;SDS011;28985;47.456;19.016;2022-09-03T02:02:14;6.15;;;2.78;;
42296;SDS011;28985;47.456;19.016;2022-09-03T02:04:54;8.40;;;2.88;;
42296;SDS011;28985;47.456;19.016;2022-09-03T02:07:21;9.65;;;3.60;;
42296;SDS011;28985;47.456;19.016;2022-09-03T02:09:50;3.28;;;2.85;;
42296;SDS011;28985;47.456;19.016;2022-09-03T02:12:16;3.08;;;2.63;;
42296;SDS011;28985;47.456;19.016;2022-09-03T02:14:45;3.53;;;2.97;;
42296;SDS011;28985;47.456;19.016;2022-09-03T02:17:12;4.32;;;2.58;;
42296;SDS011;28985;47.456;19.016;2022-09-03T02:19:38;3.88;;;2.60;;
42296;SDS011;28985;47.456;19.016;2022-09-03T02:22:06;5.90;;;2.83;;
42296;SDS011;28985;47.456;19.016;2022-09-03T02:24:32;5.15;;;3.80;;
42296;SDS011;28985;47.456;19.016;2022-09-03T02:26:59;4.13;;;2.80;;
42296;SDS011;28985;47.456;19.016;2022-09-03T02:29:25;6.60;;;2.72;;
42296;SDS011;28985;47.456;19.016;2022-09-03T02:31:53;3.40;;;2.67;;
42296;SDS011;28985;47.456;19.016;2022-09-03T02:34:19;3.22;;;2.38;;
42296;SDS011;28985;47.456;19.016;2022-09-03T02:36:46;3.83;;;2.70;;
42296;SDS011;28985;47.456;19.016;2022-09-03T02:39:13;4.68;;;2.00;;
42296;SDS011;28985;47.456;19.016;2022-09-03T02:41:41;4.10;;;2.78;;
42296;SDS011;28985;47.456;19.016;2022-09-03T02:44:12;5.70;;;4.38;;
42296;SDS011;28985;47.456;19.016;2022-09-03T02:46:51;3.03;;;2.50;;
42296;SDS011;28985;47.456;19.016;2022-09-03T02:49:22;3.45;;;2.42;;
42296;SDS011;28985;47.456;19.016;2022-09-03T02:51:49;5.95;;;2.58;;
42296;SDS011;28985;47.456;19.016;2022-09-03T02:54:16;4.10;;;2.75;;
42296;SDS011;28985;47.456;19.016;2022-09-03T02:56:46;4.97;;;2.47;;
42296;SDS011;28985;47.456;19.016;2022-09-03T02:59:14;3.20;;;2.13;;
42296;SDS011;28985;47.456;19.016;2022-09-03T03:01:43;4.35;;;2.40;;
42296;SDS011;28985;47.456;19.016;2022-09-03T03:04:11;3.85;;;2.30;;
42296;SDS011;28985;47.456;19.016;2022-09-03T03:06:38;3.72;;;2.00;;
42296;SDS011;28985;47.456;19.016;2022-09-03T03:09:05;5.68;;;2.13;;
42296;SDS011;28985;47.456;19.016;2022-09-03T03:11:32;2.22;;;2.03;;
42296;SDS011;28985;47.456;19.016;2022-09-03T03:14:00;3.83;;;2.25;;
42296;SDS011;28985;47.456;19.016;2022-09-03T03:16:27;2.90;;;2.35;;
42296;SDS011;28985;47.456;19.016;2022-09-03T03:18:55;5.25;;;3.50;;
42296;SDS011;28985;47.456;19.016;2022-09-03T03:21:22;3.45;;;2.00;;
42296;SDS011;28985;47.456;19.016;2022-09-03T03:23:49;3.42;;;2.30;;
42296;SDS011;28985;47.456;19.016;2022-09-03T03:26:16;4.18;;;2.60;;
42296;SDS011;28985;47.456;19.016;2022-09-03T03:28:45;4.32;;;2.30;;
42296;SDS011;28985;47.456;19.016;2022-09-03T03:31:14;6.43;;;2.70;;
42296;SDS011;28985;47.456;19.016;2022-09-03T03:33:43;3.75;;;2.10;;
42296;SDS011;28985;47.456;19.016;2022-09-03T03:36:13;3.33;;;2.53;;
42296;SDS011;28985;47.456;19.016;2022-09-03T03:38:41;3.65;;;2.45;;
42296;SDS011;28985;47.456;19.016;2022-09-03T03:41:10;3.78;;;2.55;;
42296;SDS011;28985;47.456;19.016;2022-09-03T03:43:38;2.75;;;2.35;;
42296;SDS011;28985;47.456;19.016;2022-09-03T03:46:05;3.80;;;2.90;;
42296;SDS011;28985;47.456;19.016;2022-09-03T03:48:32;3.42;;;2.50;;
42296;SDS011;28985;47.456;19.016;2022-09-03T03:51:03;5.70;;;2.60;;
42296;SDS011;28985;47.456;19.016;2022-09-03T03:53:33;3.75;;;2.28;;
42296;SDS011;28985;47.456;19.016;2022-09-03T03:56:02;3.15;;;2.75;;
42296;SDS011;28985;47.456;19.016;2022-09-03T03:58:31;3.63;;;2.38;;
42296;SDS011;28985;47.456;19.016;2022-09-03T04:01:09;2.53;;;2.33;;
42296;SDS011;28985;47.456;19.016;2022-09-03T04:03:40;9.90;;;2.40;;
42296;SDS011;28985;47.456;19.016;2022-09-03T04:06:08;5.68;;;2.45;;
42296;SDS011;28985;47.456;19.016;2022-09-03T04:08:37;3.50;;;2.55;;
42296;SDS011;28985;47.456;19.016;2022-09-03T04:11:05;3.40;;;2.30;;
42296;SDS011;28985;47.456;19.016;2022-09-03T04:13:36;6.65;;;2.58;;
42296;SDS011;28985;47.456;19.016;2022-09-03T04:16:04;6.05;;;2.40;;
42296;SDS011;28985;47.456;19.016;2022-09-03T04:18:36;6.72;;;2.85;;
42296;SDS011;28985;47.456;19.016;2022-09-03T04:21:05;3.80;;;2.60;;
42296;SDS011;28985;47.456;19.016;2022-09-03T04:23:36;4.80;;;2.88;;
42296;SDS011;28985;47.456;19.016;2022-09-03T04:26:04;10.65;;;3.10;;
42296;SDS011;28985;47.456;19.016;2022-09-03T04:28:32;6.18;;;3.17;;
42296;SDS011;28985;47.456;19.016;2022-09-03T04:31:05;3.95;;;2.70;;
42296;SDS011;28985;47.456;19.016;2022-09-03T04:33:34;3.17;;;2.78;;
42296;SDS011;28985;47.456;19.016;2022-09-03T04:36:04;4.13;;;3.13;;
42296;SDS011;28985;47.456;19.016;2022-09-03T04:38:34;5.75;;;2.85;;
42296;SDS011;28985;47.456;19.016;2022-09-03T04:41:02;4.35;;;2.72;;
42296;SDS011;28985;47.456;19.016;2022-09-03T04:43:29;3.35;;;3.05;;
42296;SDS011;28985;47.456;19.016;2022-09-03T04:45:57;3.05;;;2.72;;
42296;SDS011;28985;47.456;19.016;2022-09-03T04:48:25;4.10;;;3.70;;
42296;SDS011;28985;47.456;19.016;2022-09-03T04:50:53;8.18;;;5.28;;
42296;SDS011;28985;47.456;19.016;2022-09-03T04:53:20;5.43;;;4.13;;
42296;SDS011;28985;47.456;19.016;2022-09-03T04:55:48;4.93;;;3.35;;
42296;SDS011;28985;47.456;19.016;2022-09-03T04:58:14;7.10;;;3.58;;
42296;SDS011;28985;47.456;19.016;2022-09-03T05:00:41;4.15;;;2.53;;
42296;SDS011;28985;47.456;19.016;2022-09-03T05:03:08;4.45;;;4.05;;
42296;SDS011;28985;47.456;19.016;2022-09-03T05:05:34;7.57;;;3.60;;
42296;SDS011;28985;47.456;19.016;2022-09-03T05:08:01;4.28;;;3.35;;
42296;SDS011;28985;47.456;19.016;2022-09-03T05:10:28;4.95;;;4.03;;
42296;SDS011;28985;47.456;19.016;2022-09-03T05:13:03;4.28;;;3.88;;
42296;SDS011;28985;47.456;19.016;2022-09-03T05:15:31;5.20;;;3.40;;
42296;SDS011;28985;47.456;19.016;2022-09-03T05:18:01;5.85;;;3.63;;
42296;SDS011;28985;47.456;19.016;2022-09-03T05:20:29;6.93;;;3.83;;
42296;SDS011;28985;47.456;19.016;2022-09-03T05:22:56;8.82;;;3.88;;
42296;SDS011;28985;47.456;19.016;2022-09-03T05:25:23;4.72;;;3.55;;
42296;SDS011;28985;47.456;19.016;2022-09-03T05:27:50;4.45;;;3.70;;
42296;SDS011;28985;47.456;19.016;2022-09-03T05:30:16;6.53;;;4.20;;
42296;SDS011;28985;47.456;19.016;2022-09-03T05:32:43;4.68;;;4.10;;
42296;SDS011;28985;47.456;19.016;2022-09-03T05:35:10;9.13;;;4.22;;
42296;SDS011;28985;47.456;19.016;2022-09-03T05:37:36;4.10;;;3.65;;
42296;SDS011;28985;47.456;19.016;2022-09-03T05:40:03;8.02;;;4.55;;
42296;SDS011;28985;47.456;19.016;2022-09-03T05:42:30;5.05;;;3.75;;
42296;SDS011;28985;47.456;19.016;2022-09-03T05:45:00;8.82;;;4.10;;
42296;SDS011;28985;47.456;19.016;2022-09-03T05:47:26;5.38;;;3.95;;
42296;SDS011;28985;47.456;19.016;2022-09-03T05:49:53;7.05;;;4.07;;
42296;SDS011;28985;47.456;19.016;2022-09-03T05:52:19;7.53;;;3.88;;
42296;SDS011;28985;47.456;19.016;2022-09-03T05:54:48;4.47;;;3.53;;
42296;SDS011;28985;47.456;19.016;2022-09-03T05:57:15;6.78;;;3.90;;
42296;SDS011;28985;47.456;19.016;2022-09-03T05:59:41;6.05;;;4.15;;
42296;SDS011;28985;47.456;19.016;2022-09-03T06:02:08;5.15;;;3.80;;
42296;SDS011;28985;47.456;19.016;2022-09-03T06:04:37;5.95;;;4.32;;
42296;SDS011;28985;47.456;19.016;2022-09-03T06:07:03;6.13;;;4.55;;
42296;SDS011;28985;47.456;19.016;2022-09-03T06:09:30;6.03;;;4.38;;
42296;SDS011;28985;47.456;19.016;2022-09-03T06:11:56;4.65;;;3.95;;
42296;SDS011;28985;47.456;19.016;2022-09-03T06:14:25;7.88;;;4.18;;
42296;SDS011;28985;47.456;19.016;2022-09-03T06:16:51;6.15;;;3.60;;
42296;SDS011;28985;47.456;19.016;2022-09-03T06:19:19;6.35;;;3.65;;
42296;SDS011;28985;47.456;19.016;2022-09-03T06:21:46;4.85;;;3.50;;
42296;SDS011;28985;47.456;19.016;2022-09-03T06:24:16;6.20;;;4.07;;
42296;SDS011;28985;47.456;19.016;2022-09-03T06:26:45;6.55;;;3.80;;
42296;SDS011;28985;47.456;19.016;2022-09-03T06:29:12;3.72;;;3.22;;
42296;SDS011;28985;47.456;19.016;2022-09-03T06:31:39;6.60;;;2.83;;
42296;SDS011;28985;47.456;19.016;2022-09-03T06:34:06;7.20;;;2.70;;
42296;SDS011;28985;47.456;19.016;2022-09-03T06:36:33;7.32;;;3.40;;
42296;SDS011;28985;47.456;19.016;2022-09-03T06:39:00;4.90;;;2.83;;
42296;SDS011;28985;47.456;19.016;2022-09-03T06:41:30;3.15;;;2.67;;
42296;SDS011;28985;47.456;19.016;2022-09-03T06:44:03;2.58;;;2.42;;
42296;SDS011;28985;47.456;19.016;2022-09-03T06:46:32;3.58;;;2.90;;
42296;SDS011;28985;47.456;19.016;2022-09-03T06:49:00;3.22;;;2.95;;
42296;SDS011;28985;47.456;19.016;2022-09-03T06:51:28;3.65;;;2.28;;
42296;SDS011;28985;47.456;19.016;2022-09-03T06:54:03;2.80;;;2.60;;
42296;SDS011;28985;47.456;19.016;2022-09-03T06:56:31;3.25;;;2.63;;
42296;SDS011;28985;47.456;19.016;2022-09-03T06:59:06;2.92;;;2.67;;
42296;SDS011;28985;47.456;19.016;2022-09-03T07:01:34;5.28;;;2.47;;
42296;SDS011;28985;47.456;19.016;2022-09-03T07:04:02;3.58;;;2.00;;
42296;SDS011;28985;47.456;19.016;2022-09-03T07:06:37;5.70;;;2.67;;
42296;SDS011;28985;47.456;19.016;2022-09-03T07:09:05;3.35;;;2.17;;
42296;SDS011;28985;47.456;19.016;2022-09-03T07:11:33;5.20;;;2.65;;
42296;SDS011;28985;47.456;19.016;2022-09-03T07:14:01;4.15;;;2.53;;
42296;SDS011;28985;47.456;19.016;2022-09-03T07:16:31;3.35;;;3.05;;
42296;SDS011;28985;47.456;19.016;2022-09-03T07:19:00;4.20;;;3.80;;
42296;SDS011;28985;47.456;19.016;2022-09-03T07:21:29;3.90;;;3.63;;
42296;SDS011;28985;47.456;19.016;2022-09-03T07:23:57;4.47;;;3.00;;
42296;SDS011;28985;47.456;19.016;2022-09-03T07:26:24;4.10;;;3.80;;
42296;SDS011;28985;47.456;19.016;2022-09-03T07:28:53;6.00;;;4.45;;
42296;SDS011;28985;47.456;19.016;2022-09-03T07:31:21;12.45;;;5.18;;
42296;SDS011;28985;47.456;19.016;2022-09-03T07:33:57;5.95;;;5.45;;
42296;SDS011;28985;47.456;19.016;2022-09-03T07:36:26;6.65;;;6.07;;
42296;SDS011;28985;47.456;19.016;2022-09-03T07:39:00;6.90;;;6.30;;
42296;SDS011;28985;47.456;19.016;2022-09-03T07:41:29;7.95;;;7.25;;
42296;SDS011;28985;47.456;19.016;2022-09-03T07:43:58;7.68;;;7.10;;
42296;SDS011;28985;47.456;19.016;2022-09-03T07:46:32;7.05;;;6.55;;
42296;SDS011;28985;47.456;19.016;2022-09-03T07:49:00;6.72;;;6.13;;
42296;SDS011;28985;47.456;19.016;2022-09-03T07:51:28;8.15;;;7.47;;
42296;SDS011;28985;47.456;19.016;2022-09-03T07:53:57;8.38;;;6.82;;
42296;SDS011;28985;47.456;19.016;2022-09-03T07:56:27;9.30;;;7.55;;
42296;SDS011;28985;47.456;19.016;2022-09-03T07:58:57;11.65;;;10.55;;
42296;SDS011;28985;47.456;19.016;2022-09-03T08:01:25;14.10;;;9.60;;
42296;SDS011;28985;47.456;19.016;2022-09-03T08:03:54;11.60;;;10.60;;
42296;SDS011;28985;47.456;19.016;2022-09-03T08:06:22;14.02;;;12.70;;
42296;SDS011;28985;47.456;19.016;2022-09-03T08:08:53;14.18;;;13.43;;
42296;SDS011;28985;47.456;19.016;2022-09-03T08:11:30;15.98;;;15.07;;
42296;SDS011;28985;47.456;19.016;2022-09-03T08:13:58;18.05;;;17.08;;
42296;SDS011;28985;47.456;19.016;2022-09-03T08:16:29;16.85;;;15.95;;
42296;SDS011;28985;47.456;19.016;2022-09-03T08:18:57;21.58;;;20.35;;
42296;SDS011;28985;47.456;19.016;2022-09-03T08:21:24;22.75;;;21.77;;
42296;SDS011;28985;47.456;19.016;2022-09-03T08:23:53;17.83;;;16.85;;
42296;SDS011;28985;47.456;19.016;2022-09-03T08:26:28;19.70;;;18.40;;
42296;SDS011;28985;47.456;19.016;2022-09-03T08:29:03;20.80;;;19.77;;
42296;SDS011;28985;47.456;19.016;2022-09-03T08:31:31;21.60;;;20.38;;
42296;SDS011;28985;47.456;19.016;2022-09-03T08:33:59;22.20;;;21.27;;
42296;SDS011;28985;47.456;19.016;2022-09-03T08:36:33;25.83;;;24.48;;
42296;SDS011;28985;47.456;19.016;2022-09-03T08:39:02;28.38;;;27.08;;
42296;SDS011;28985;47.456;19.016;2022-09-03T08:57:56;55.10;;;52.80;;
42296;SDS011;28985;47.456;19.016;2022-09-03T09:00:33;61.22;;;58.75;;
42296;SDS011;28985;47.456;19.016;2022-09-03T09:03:11;57.72;;;55.40;;
42296;SDS011;28985;47.456;19.016;2022-09-03T09:08:39;66.40;;;63.60;;
42296;SDS011;28985;47.456;19.016;2022-09-03T09:11:39;63.15;;;60.55;;
42296;SDS011;28985;47.456;19.016;2022-09-03T09:20:05;63.53;;;60.95;;
42296;SDS011;28985;47.456;19.016;2022-09-03T09:22:45;74.82;;;71.82;;
42296;SDS011;28985;47.456;19.016;2022-09-03T09:25:17;70.35;;;67.47;;
42296;SDS011;28985;47.456;19.016;2022-09-03T09:30:28;83.45;;;80.15;;
42296;SDS011;28985;47.456;19.016;2022-09-03T09:32:57;89.78;;;86.22;;
42296;SDS011;28985;47.456;19.016;2022-09-03T09:35:25;100.30;;;96.45;;
42296;SDS011;28985;47.456;19.016;2022-09-03T09:37:53;160.63;;;154.52;;
42296;SDS011;28985;47.456;19.016;2022-09-03T09:40:40;100.63;;;96.65;;
42296;SDS011;28985;47.456;19.016;2022-09-03T09:43:14;107.80;;;103.50;;
42296;SDS011;28985;47.456;19.016;2022-09-03T09:45:44;108.38;;;103.97;;
42296;SDS011;28985;47.456;19.016;2022-09-03T09:51:06;189.18;;;181.93;;
42296;SDS011;28985;47.456;19.016;2022-09-03T09:53:36;135.45;;;130.25;;
42296;SDS011;28985;47.456;19.016;2022-09-03T09:56:03;138.88;;;133.63;;
42296;SDS011;28985;47.456;19.016;2022-09-03T09:58:31;143.38;;;137.88;;
42296;SDS011;28985;47.456;19.016;2022-09-03T10:01:00;253.13;;;243.57;;
42296;SDS011;28985;47.456;19.016;2022-09-03T10:03:31;166.95;;;160.38;;
42296;SDS011;28985;47.456;19.016;2022-09-03T10:06:04;121.65;;;117.03;;
42296;SDS011;28985;47.456;19.016;2022-09-03T10:08:52;129.55;;;124.45;;
42296;SDS011;28985;47.456;19.016;2022-09-03T10:11:31;181.85;;;174.45;;
42296;SDS011;28985;47.456;19.016;2022-09-03T10:14:02;159.50;;;153.40;;
42296;SDS011;28985;47.456;19.016;2022-09-03T10:16:34;165.90;;;159.52;;
42296;SDS011;28985;47.456;19.016;2022-09-03T10:19:12;169.30;;;162.93;;
42296;SDS011;28985;47.456;19.016;2022-09-03T10:21:53;114.57;;;109.95;;
42296;SDS011;28985;47.456;19.016;2022-09-03T10:24:39;121.35;;;116.72;;
42296;SDS011;28985;47.456;19.016;2022-09-03T10:27:15;125.10;;;120.10;;
42296;SDS011;28985;47.456;19.016;2022-09-03T10:29:43;131.75;;;126.75;;
42296;SDS011;28985;47.456;19.016;2022-09-03T10:37:45;144.63;;;138.98;;
42296;SDS011;28985;47.456;19.016;2022-09-03T10:40:33;155.15;;;149.07;;
42296;SDS011;28985;47.456;19.016;2022-09-03T10:48:26;188.65;;;181.23;;
42296;SDS011;28985;47.456;19.016;2022-09-03T10:56:31;265.35;;;255.25;;
42296;SDS011;28985;47.456;19.016;2022-09-03T11:07:20;167.95;;;161.45;;
42296;SDS011;28985;47.456;19.016;2022-09-03T11:09:56;232.93;;;224.05;;
42296;SDS011;28985;47.456;19.016;2022-09-03T11:12:35;168.80;;;162.13;;
42296;SDS011;28985;47.456;19.016;2022-09-03T11:15:10;206.23;;;197.95;;
42296;SDS011;28985;47.456;19.016;2022-09-03T11:18:03;176.38;;;169.55;;
42296;SDS011;28985;47.456;19.016;2022-09-03T11:20:41;205.13;;;197.27;;
42296;SDS011;28985;47.456;19.016;2022-09-03T11:23:09;166.10;;;159.65;;
42296;SDS011;28985;47.456;19.016;2022-09-03T11:25:42;157.85;;;151.65;;
42296;SDS011;28985;47.456;19.016;2022-09-03T11:34:11;189.55;;;182.38;;
42296;SDS011;28985;47.456;19.016;2022-09-03T11:37:14;169.93;;;163.25;;
42296;SDS011;28985;47.456;19.016;2022-09-03T11:39:42;169.55;;;163.10;;
42296;SDS011;28985;47.456;19.016;2022-09-03T11:42:11;176.25;;;169.45;;
42296;SDS011;28985;47.456;19.016;2022-09-03T11:44:49;175.35;;;168.73;;
42296;SDS011;28985;47.456;19.016;2022-09-03T11:47:21;168.85;;;162.05;;
42296;SDS011;28985;47.456;19.016;2022-09-03T11:49:50;148.52;;;142.90;;
42296;SDS011;28985;47.456;19.016;2022-09-03T11:52:28;152.05;;;146.25;;
42296;SDS011;28985;47.456;19.016;2022-09-03T11:54:57;142.52;;;137.15;;
42296;SDS011;28985;47.456;19.016;2022-09-03T11:57:26;144.13;;;138.57;;
42296;SDS011;28985;47.456;19.016;2022-09-03T12:00:06;165.80;;;158.77;;
42296;SDS011;28985;47.456;19.016;2022-09-03T12:02:36;155.52;;;149.63;;
42296;SDS011;28985;47.456;19.016;2022-09-03T12:19:03;106.93;;;102.93;;
42296;SDS011;28985;47.456;19.016;2022-09-03T12:21:38;107.88;;;103.50;;
42296;SDS011;28985;47.456;19.016;2022-09-03T12:24:07;91.70;;;88.07;;
42296;SDS011;28985;47.456;19.016;2022-09-03T12:26:38;95.70;;;91.78;;
42296;SDS011;28985;47.456;19.016;2022-09-03T12:29:18;104.55;;;100.38;;
42296;SDS011;28985;47.456;19.016;2022-09-03T12:31:52;60.90;;;58.33;;
42296;SDS011;28985;47.456;19.016;2022-09-03T12:34:22;64.13;;;61.00;;
42296;SDS011;28985;47.456;19.016;2022-09-03T12:36:51;60.35;;;57.97;;
42296;SDS011;28985;47.456;19.016;2022-09-03T12:39:20;52.67;;;50.67;;
42296;SDS011;28985;47.456;19.016;2022-09-03T12:42:11;46.67;;;44.97;;
42296;SDS011;28985;47.456;19.016;2022-09-03T12:44:44;46.45;;;44.30;;
42296;SDS011;28985;47.456;19.016;2022-09-03T12:47:12;73.35;;;70.57;;
42296;SDS011;28985;47.456;19.016;2022-09-03T12:50:04;41.63;;;39.95;;
42296;SDS011;28985;47.456;19.016;2022-09-03T12:52:38;40.07;;;38.47;;
42296;SDS011;28985;47.456;19.016;2022-09-03T13:00:36;42.25;;;40.55;;
42296;SDS011;28985;47.456;19.016;2022-09-03T13:05:42;47.15;;;45.13;;
42296;SDS011;28985;47.456;19.016;2022-09-03T13:08:14;46.17;;;44.38;;
42296;SDS011;28985;47.456;19.016;2022-09-03T13:10:48;46.20;;;44.38;;
42296;SDS011;28985;47.456;19.016;2022-09-03T13:16:38;46.42;;;44.63;;
42296;SDS011;28985;47.456;19.016;2022-09-03T13:35:39;23.63;;;22.73;;
42296;SDS011;28985;47.456;19.016;2022-09-03T13:38:24;20.52;;;19.80;;
42296;SDS011;28985;47.456;19.016;2022-09-03T13:41:08;19.63;;;18.80;;
42296;SDS011;28985;47.456;19.016;2022-09-03T13:46:29;19.92;;;18.77;;
42296;SDS011;28985;47.456;19.016;2022-09-03T13:49:05;18.70;;;17.90;;
42296;SDS011;28985;47.456;19.016;2022-09-03T13:52:00;19.63;;;18.85;;
42296;SDS011;28985;47.456;19.016;2022-09-03T13:54:38;19.20;;;18.45;;
42296;SDS011;28985;47.456;19.016;2022-09-03T13:57:36;17.98;;;17.20;;
42296;SDS011;28985;47.456;19.016;2022-09-03T14:00:12;18.75;;;18.05;;
42296;SDS011;28985;47.456;19.016;2022-09-03T14:05:53;21.65;;;20.60;;
42296;SDS011;28985;47.456;19.016;2022-09-03T14:08:52;21.17;;;20.02;;
42296;SDS011;28985;47.456;19.016;2022-09-03T14:25:08;24.73;;;23.83;;
42296;SDS011;28985;47.456;19.016;2022-09-03T14:27:39;25.05;;;24.10;;
42296;SDS011;28985;47.456;19.016;2022-09-03T14:30:16;25.27;;;24.25;;
42296;SDS011;28985;47.456;19.016;2022-09-03T14:41:58;24.92;;;23.85;;
42296;SDS011;28985;47.456;19.016;2022-09-03T14:47:18;23.30;;;22.40;;
42296;SDS011;28985;47.456;19.016;2022-09-03T15:09:39;20.23;;;19.50;;
42296;SDS011;28985;47.456;19.016;2022-09-03T15:17:25;19.40;;;18.40;;
42296;SDS011;28985;47.456;19.016;2022-09-03T15:23:24;19.75;;;19.00;;
42296;SDS011;28985;47.456;19.016;2022-09-03T15:31:24;20.20;;;19.40;;
42296;SDS011;28985;47.456;19.016;2022-09-03T15:36:53;21.25;;;20.35;;
42296;SDS011;28985;47.456;19.016;2022-09-03T15:39:24;22.25;;;21.05;;
42296;SDS011;28985;47.456;19.016;2022-09-03T15:44:44;22.80;;;21.65;;
42296;SDS011;28985;47.456;19.016;2022-09-03T15:50:24;22.50;;;21.52;;
42296;SDS011;28985;47.456;19.016;2022-09-03T15:53:02;22.55;;;21.45;;
42296;SDS011;28985;47.456;19.016;2022-09-03T15:55:40;22.55;;;21.40;;
42296;SDS011;28985;47.456;19.016;2022-09-03T16:03:43;22.25;;;21.30;;
42296;SDS011;28985;47.456;19.016;2022-09-03T16:06:31;21.77;;;20.98;;
42296;SDS011;28985;47.456;19.016;2022-09-03T16:14:55;22.67;;;21.58;;
42296;SDS011;28985;47.456;19.016;2022-09-03T16:17:38;21.90;;;21.00;;
42296;SDS011;28985;47.456;19.016;2022-09-03T16:25:29;22.55;;;21.65;;
42296;SDS011;28985;47.456;19.016;2022-09-03T16:28:19;24.00;;;22.80;;
42296;SDS011;28985;47.456;19.016;2022-09-03T16:31:01;22.70;;;21.90;;
42296;SDS011;28985;47.456;19.016;2022-09-03T16:37:12;23.05;;;21.95;;
42296;SDS011;28985;47.456;19.016;2022-09-03T16:45:16;23.38;;;22.48;;
42296;SDS011;28985;47.456;19.016;2022-09-03T16:48:05;23.92;;;22.60;;
42296;SDS011;28985;47.456;19.016;2022-09-03T16:50:51;24.08;;;23.08;;
42296;SDS011;28985;47.456;19.016;2022-09-03T16:56:35;25.00;;;23.90;;
42296;SDS011;28985;47.456;19.016;2022-09-03T17:08:06;25.35;;;24.30;;
42296;SDS011;28985;47.456;19.016;2022-09-03T17:12:42;30.42;;;29.10;;
42296;SDS011;28985;47.456;19.016;2022-09-03T17:17:56;50.83;;;48.72;;
42296;SDS011;28985;47.456;19.016;2022-09-03T17:23:50;94.93;;;91.22;;
42296;SDS011;28985;47.456;19.016;2022-09-03T17:32:41;190.02;;;182.43;;
42296;SDS011;28985;47.456;19.016;2022-09-03T17:34:55;209.82;;;201.77;;
42296;SDS011;28985;47.456;19.016;2022-09-03T17:43:05;310.95;;;298.80;;
42296;SDS011;28985;47.456;19.016;2022-09-03T17:45:45;361.95;;;347.33;;
42296;SDS011;28985;47.456;19.016;2022-09-03T17:51:15;481.55;;;460.95;;
42296;SDS011;28985;47.456;19.016;2022-09-03T17:53:44;504.80;;;482.60;;
42296;SDS011;28985;47.456;19.016;2022-09-03T18:02:01;511.88;;;489.85;;
42296;SDS011;28985;47.456;19.016;2022-09-03T18:04:44;508.02;;;485.75;;
42296;SDS011;28985;47.456;19.016;2022-09-03T18:07:26;501.45;;;479.88;;
42296;SDS011;28985;47.456;19.016;2022-09-03T18:13:01;539.00;;;514.80;;
42296;SDS011;28985;47.456;19.016;2022-09-03T18:18:12;588.92;;;561.90;;
42296;SDS011;28985;47.456;19.016;2022-09-03T18:20:50;651.90;;;619.40;;
42296;SDS011;28985;47.456;19.016;2022-09-03T18:24:01;645.05;;;613.83;;
42296;SDS011;28985;47.456;19.016;2022-09-03T18:26:49;644.42;;;613.15;;
42296;SDS011;28985;47.456;19.016;2022-09-03T18:29:44;664.10;;;630.83;;
42296;SDS011;28985;47.456;19.016;2022-09-03T18:32:39;584.78;;;558.03;;
42296;SDS011;28985;47.456;19.016;2022-09-03T18:35:24;577.13;;;550.90;;
42296;SDS011;28985;47.456;19.016;2022-09-03T18:38:15;540.28;;;516.47;;
42296;SDS011;28985;47.456;19.016;2022-09-03T18:50:57;487.55;;;466.80;;
42296;SDS011;28985;47.456;19.016;2022-09-03T18:54:16;471.52;;;451.38;;
42296;SDS011;28985;47.456;19.016;2022-09-03T19:04:04;499.50;;;477.92;;
42296;SDS011;28985;47.456;19.016;2022-09-03T19:16:08;380.95;;;365.88;;
42296;SDS011;28985;47.456;19.016;2022-09-03T19:22:03;306.25;;;294.27;;
42296;SDS011;28985;47.456;19.016;2022-09-03T19:24:58;266.10;;;255.65;;
42296;SDS011;28985;47.456;19.016;2022-09-03T19:30:55;265.88;;;255.63;;
42296;SDS011;28985;47.456;19.016;2022-09-03T19:37:01;223.80;;;215.15;;
42296;SDS011;28985;47.456;19.016;2022-09-03T19:45:53;187.30;;;180.02;;
42296;SDS011;28985;47.456;19.016;2022-09-03T19:54:37;168.47;;;161.97;;
42296;SDS011;28985;47.456;19.016;2022-09-03T19:57:24;142.73;;;137.02;;
42296;SDS011;28985;47.456;19.016;2022-09-03T20:00:12;117.93;;;113.28;;
42296;SDS011;28985;47.456;19.016;2022-09-03T20:02:58;118.93;;;114.22;;
42296;SDS011;28985;47.456;19.016;2022-09-03T20:05:45;103.82;;;99.57;;
42296;SDS011;28985;47.456;19.016;2022-09-03T20:08:36;99.18;;;95.03;;
42296;SDS011;28985;47.456;19.016;2022-09-03T20:11:21;89.03;;;85.25;;
42296;SDS011;28985;47.456;19.016;2022-09-03T20:13:52;86.57;;;83.10;;
42296;SDS011;28985;47.456;19.016;2022-09-03T20:22:21;60.80;;;58.00;;
42296;SDS011;28985;47.456;19.016;2022-09-03T20:30:14;52.95;;;50.60;;
42296;SDS011;28985;47.456;19.016;2022-09-03T20:41:30;42.85;;;40.78;;
42296;SDS011;28985;47.456;19.016;2022-09-03T20:46:55;41.47;;;39.47;;
42296;SDS011;28985;47.456;19.016;2022-09-03T20:54:47;33.58;;;31.50;;
42296;SDS011;28985;47.456;19.016;2022-09-03T21:00:19;24.52;;;23.23;;
42296;SDS011;28985;47.456;19.016;2022-09-03T21:05:50;20.67;;;19.27;;
42296;SDS011;28985;47.456;19.016;2022-09-03T21:16:59;13.32;;;12.50;;
42296;SDS011;28985;47.456;19.016;2022-09-03T21:25:47;10.40;;;9.70;;
42296;SDS011;28985;47.456;19.016;2022-09-03T21:28:21;9.07;;;8.43;;
42296;SDS011;28985;47.456;19.016;2022-09-03T21:31:00;9.95;;;9.05;;